Time;durP1;ratioP1;P1;durP2;ratioP2;P2;SDS_P1;SDS_P2;PMS_P1;PMS_P2;Temp;Humidity;BMP_temperature;BMP_pressure;BME280_temperature;BME280_humidity;BME280_pressure;Samples;Min_cycle;Max_cycle;Signal;HPM_P1;HPM_P2
2022/07/07 00:02:22;;;;;;;4.65;4.30;;;;;;;20.22;92.32;94442.28;5052411;28;20209;-63
2022/07/07 00:04:47;;;;;;;4.93;4.38;;;;;;;20.20;92.62;94445.03;5052116;28;20659;-62
2022/07/07 00:07:13;;;;;;;6.38;4.43;;;;;;;20.13;93.26;94451.16;5052258;28;20561;-63
2022/07/07 00:09:38;;;;;;;4.10;3.80;;;;;;;20.08;94.18;94437.03;5052190;28;20188;-63
2022/07/07 00:12:04;;;;;;;4.45;4.05;;;;;;;20.05;94.10;94442.59;5052052;28;20319;-62
2022/07/07 00:14:30;;;;;;;4.60;4.20;;;;;;;19.98;94.34;94444.34;5051930;28;20268;-63
2022/07/07 00:16:56;;;;;;;5.70;4.18;;;;;;;19.98;94.90;94440.94;5051965;28;20283;-64
2022/07/07 00:19:23;;;;;;;5.22;4.75;;;;;;;19.93;95.31;94444.13;5051991;28;20181;-63
2022/07/07 00:21:48;;;;;;;6.32;4.43;;;;;;;19.93;94.95;94449.28;5051806;28;20596;-62
2022/07/07 00:24:14;;;;;;;6.97;4.53;;;;;;;19.96;95.29;94454.06;5034100;28;20304;-62
2022/07/07 00:26:39;;;;;;;7.57;4.50;;;;;;;19.93;95.36;94451.88;5051723;28;20208;-61
2022/07/07 00:29:05;;;;;;;4.28;3.97;;;;;;;19.97;94.95;94460.03;5051998;28;20189;-61
2022/07/07 00:31:30;;;;;;;4.97;3.92;;;;;;;19.99;95.09;94468.38;5050888;28;20209;-63
2022/07/07 00:33:55;;;;;;;4.47;4.10;;;;;;;19.96;95.29;94461.00;5051927;28;20184;-63
2022/07/07 00:36:21;;;;;;;4.72;4.32;;;;;;;19.96;94.93;94476.47;5051881;28;20235;-63
2022/07/07 00:38:47;;;;;;;4.55;3.83;;;;;;;19.90;95.05;94467.72;5051124;28;20181;-63
2022/07/07 00:41:13;;;;;;;4.97;4.47;;;;;;;19.90;94.50;94483.22;5051721;28;20212;-64
2022/07/07 00:43:41;;;;;;;4.50;4.10;;;;;;;19.82;95.20;94467.06;5051946;28;20251;-62
2022/07/07 00:46:07;;;;;;;4.63;4.18;;;;;;;19.84;94.80;94478.81;5051798;28;20268;-63
2022/07/07 00:48:35;;;;;;;4.45;4.05;;;;;;;19.87;94.32;94480.22;5051892;28;20265;-62
2022/07/07 00:51:03;;;;;;;4.10;3.80;;;;;;;19.90;94.16;94482.41;5051572;28;20182;-62
2022/07/07 00:53:28;;;;;;;5.03;3.30;;;;;;;19.84;93.63;94486.56;5033588;28;20190;-62
2022/07/07 00:55:54;;;;;;;4.68;4.28;;;;;;;19.77;93.95;94485.72;5051416;28;20271;-62
2022/07/07 00:58:19;;;;;;;3.92;3.63;;;;;;;19.76;93.94;94478.97;5051477;28;20204;-62
2022/07/07 01:00:45;;;;;;;4.85;3.83;;;;;;;19.80;93.50;94487.91;5051548;28;20693;-62
2022/07/07 01:03:11;;;;;;;4.45;4.05;;;;;;;19.83;92.88;94484.97;5051805;28;20216;-62
2022/07/07 01:05:38;;;;;;;4.13;3.72;;;;;;;19.71;93.63;94471.00;5051345;28;20270;-63
2022/07/07 01:08:04;;;;;;;4.20;3.90;;;;;;;19.65;92.99;94479.50;5051815;28;20209;-61
2022/07/07 01:10:30;;;;;;;4.07;3.67;;;;;;;19.59;93.81;94469.94;5051542;28;20208;-62
2022/07/07 01:12:56;;;;;;;3.85;3.55;;;;;;;19.62;93.81;94472.13;5033523;28;20604;-63
2022/07/07 01:15:21;;;;;;;3.70;3.40;;;;;;;19.58;93.70;94467.53;5033497;28;20230;-63
2022/07/07 01:17:47;;;;;;;3.85;3.47;;;;;;;19.51;93.54;94479.59;5033339;28;20292;-62
2022/07/07 01:20:16;;;;;;;4.25;3.90;;;;;;;19.54;93.14;94484.38;5051570;28;20715;-60
2022/07/07 01:22:53;;;;;;;3.85;3.55;;;;;;;19.52;92.98;94487.16;5051531;28;20213;-60
2022/07/07 01:25:19;;;;;;;6.63;3.75;;;;;;;19.47;92.93;94489.50;5051309;28;20213;-60
2022/07/07 01:27:44;;;;;;;7.22;3.65;;;;;;;19.47;93.04;94488.69;5051494;28;20576;-63
2022/07/07 01:30:11;;;;;;;4.00;3.15;;;;;;;19.52;92.98;94487.16;5051251;28;20200;-62
2022/07/07 01:32:37;;;;;;;4.35;3.40;;;;;;;19.47;93.02;94486.13;5051313;28;20229;-63
2022/07/07 01:35:03;;;;;;;3.47;3.22;;;;;;;19.42;93.36;94491.84;5051167;28;20182;-63
2022/07/07 01:37:28;;;;;;;4.22;3.83;;;;;;;19.31;93.70;94482.00;5051111;28;20221;-64
2022/07/07 01:39:54;;;;;;;3.95;3.25;;;;;;;19.23;94.18;94471.81;5051164;28;20190;-62
2022/07/07 01:42:20;;;;;;;4.03;3.63;;;;;;;19.27;94.30;94470.44;5052562;28;20213;-63
2022/07/07 01:44:46;;;;;;;4.25;3.05;;;;;;;19.26;93.86;94476.59;5037108;28;20220;-63
2022/07/07 01:47:12;;;;;;;3.72;3.08;;;;;;;19.25;93.91;94470.66;5054548;28;20214;-62
2022/07/07 01:49:38;;;;;;;4.20;3.33;;;;;;;19.23;94.09;94469.22;5054751;28;20177;-61
2022/07/07 01:52:05;;;;;;;6.05;4.78;;;;;;;19.21;93.67;94481.50;5054558;28;20216;-68
2022/07/07 01:54:32;;;;;;;4.00;3.70;;;;;;;19.19;93.56;94476.56;5054644;28;20189;-61
2022/07/07 01:56:58;;;;;;;3.22;3.03;;;;;;;19.14;93.05;94489.22;5054606;28;20235;-60
2022/07/07 01:59:24;;;;;;;6.25;3.30;;;;;;;19.17;93.07;94485.44;5054530;28;20193;-61
2022/07/07 02:01:50;;;;;;;3.92;2.97;;;;;;;19.23;92.48;94497.59;5054309;28;20679;-61
2022/07/07 02:04:16;;;;;;;4.18;2.88;;;;;;;19.17;91.72;94493.97;5054378;28;20205;-61
2022/07/07 02:06:41;;;;;;;3.22;3.03;;;;;;;19.17;92.06;94493.19;5036555;28;20217;-61
2022/07/07 02:09:07;;;;;;;4.72;3.30;;;;;;;19.15;92.53;94490.78;5054452;28;20190;-64
2022/07/07 02:11:34;;;;;;;3.90;2.90;;;;;;;19.07;91.48;94497.84;5054222;28;20215;-64
2022/07/07 02:14:00;;;;;;;3.65;3.30;;;;;;;19.12;90.92;94511.00;5054369;28;20185;-63
2022/07/07 02:16:26;;;;;;;2.55;2.35;;;;;;;19.15;91.13;94501.09;5054099;28;20236;-63
2022/07/07 02:18:54;;;;;;;3.95;2.85;;;;;;;19.17;90.06;94524.91;5054397;28;20652;-63
2022/07/07 02:21:20;;;;;;;3.92;2.90;;;;;;;19.13;89.40;94534.00;5054063;28;20205;-63
2022/07/07 02:23:47;;;;;;;2.95;2.47;;;;;;;19.02;90.25;94516.47;5054022;28;20252;-63
2022/07/07 02:26:12;;;;;;;2.45;2.25;;;;;;;19.06;89.85;94527.19;5054022;28;20655;-64
2022/07/07 02:28:39;;;;;;;6.57;5.53;;;;;;;19.02;89.88;94526.78;5054420;28;20280;-63
2022/07/07 02:31:05;;;;;;;7.63;6.82;;;;;;;19.01;89.73;94519.19;5053909;28;20296;-62
2022/07/07 02:33:30;;;;;;;2.70;2.50;;;;;;;19.00;89.60;94543.38;5053901;28;20272;-62
2022/07/07 02:35:56;;;;;;;3.60;2.80;;;;;;;18.95;89.64;94532.81;5054159;28;20184;-62
2022/07/07 02:38:22;;;;;;;3.53;2.75;;;;;;;19.00;89.43;94536.47;5054210;28;20258;-62
2022/07/07 02:40:48;;;;;;;5.22;3.03;;;;;;;19.06;89.24;94532.34;5053845;28;20178;-63
2022/07/07 02:43:14;;;;;;;3.75;2.28;;;;;;;19.00;88.76;94536.47;5053879;28;20241;-61
2022/07/07 02:45:44;;;;;;;10.20;7.55;;;;;;;19.00;89.07;94533.88;5035600;28;20354;-62
2022/07/07 02:48:11;;;;;;;9.95;7.10;;;;;;;19.04;88.58;94536.88;5053630;28;20210;-63
2022/07/07 02:50:38;;;;;;;3.85;2.65;;;;;;;19.02;88.54;94541.44;5035783;28;20581;-63
2022/07/07 02:53:04;;;;;;;2.80;2.25;;;;;;;19.16;88.37;94540.56;5053716;28;20205;-62
2022/07/07 02:55:30;;;;;;;3.20;2.28;;;;;;;19.04;87.96;94554.94;5053110;28;20190;-63
2022/07/07 02:58:00;;;;;;;3.15;2.28;;;;;;;18.95;87.39;94556.81;5053765;28;20216;-63
2022/07/07 03:00:27;;;;;;;2.75;2.17;;;;;;;18.92;88.34;94540.94;5053362;28;20198;-63
2022/07/07 03:02:53;;;;;;;3.88;2.42;;;;;;;18.98;88.35;94550.50;5053651;28;20239;-62
2022/07/07 03:05:22;;;;;;;3.50;2.30;;;;;;;18.99;88.06;94545.16;5053398;28;20288;-63
2022/07/07 03:07:48;;;;;;;3.45;2.22;;;;;;;18.98;88.21;94550.50;5053336;28;20283;-62
2022/07/07 03:10:15;;;;;;;3.47;2.25;;;;;;;18.89;88.23;94547.25;5053106;28;20200;-63
2022/07/07 03:12:41;;;;;;;2.53;2.30;;;;;;;18.93;88.03;94547.66;5035303;28;20209;-62
2022/07/07 03:15:07;;;;;;;2.38;2.17;;;;;;;18.91;88.19;94544.47;5053110;28;20577;-62
2022/07/07 03:17:33;;;;;;;3.35;2.22;;;;;;;18.91;88.37;94549.63;5034959;28;20268;-63
2022/07/07 03:19:59;;;;;;;2.53;2.33;;;;;;;18.92;88.40;94552.03;5035600;28;20189;-62
2022/07/07 03:22:24;;;;;;;3.10;2.00;;;;;;;18.89;88.50;94542.09;5053300;28;20206;-63
2022/07/07 03:24:50;;;;;;;3.83;1.85;;;;;;;18.91;87.97;94550.44;5052933;28;20562;-63
2022/07/07 03:27:16;;;;;;;3.65;2.25;;;;;;;18.95;88.33;94548.28;5052970;28;20744;-61
2022/07/07 03:29:41;;;;;;;2.25;1.98;;;;;;;19.03;88.68;94535.28;5053092;28;20615;-63
2022/07/07 03:32:08;;;;;;;9.80;2.10;;;;;;;18.98;87.59;94548.72;5053437;28;20300;-64
2022/07/07 03:34:33;;;;;;;2.92;2.20;;;;;;;18.95;88.00;94553.44;5034891;28;20197;-63
2022/07/07 03:36:58;;;;;;;2.60;2.40;;;;;;;18.86;88.19;94542.47;5052698;28;20218;-63
2022/07/07 03:39:24;;;;;;;4.07;2.38;;;;;;;18.83;87.74;94550.53;5052785;28;20193;-59
2022/07/07 03:41:49;;;;;;;2.55;2.20;;;;;;;18.84;88.70;94539.28;5034594;28;20205;-61
2022/07/07 03:44:15;;;;;;;4.22;2.08;;;;;;;18.84;88.49;94543.63;5052575;28;20637;-63
2022/07/07 03:46:41;;;;;;;5.88;2.13;;;;;;;18.92;88.36;94551.22;5052477;28;20209;-64
2022/07/07 03:49:07;;;;;;;2.28;2.10;;;;;;;18.90;87.25;94560.94;5052617;28;20268;-63
2022/07/07 03:51:33;;;;;;;2.47;2.28;;;;;;;18.89;87.91;94554.16;5052316;28;20288;-63
2022/07/07 03:53:58;;;;;;;2.47;2.28;;;;;;;18.90;87.77;94556.59;5052258;28;20633;-63
2022/07/07 03:56:24;;;;;;;4.90;2.25;;;;;;;18.90;87.51;94554.00;5034384;28;20267;-64
2022/07/07 03:58:49;;;;;;;3.15;2.33;;;;;;;19.03;88.35;94545.59;5052649;28;20189;-64
2022/07/07 04:01:15;;;;;;;3.55;2.10;;;;;;;18.90;87.43;94561.72;5034142;28;20209;-63
2022/07/07 04:03:41;;;;;;;5.45;2.00;;;;;;;18.93;87.13;94557.97;5034129;28;20196;-64
2022/07/07 04:06:06;;;;;;;2.22;2.03;;;;;;;18.98;86.99;94560.81;5052050;28;20185;-64
2022/07/07 04:08:32;;;;;;;3.65;2.03;;;;;;;19.01;87.03;94568.16;5052477;28;20219;-60
2022/07/07 04:10:58;;;;;;;3.25;2.40;;;;;;;19.04;86.95;94568.63;5051937;28;20582;-60
2022/07/07 04:13:23;;;;;;;5.20;2.00;;;;;;;19.08;86.19;94587.06;5052120;28;20201;-63
2022/07/07 04:15:49;;;;;;;2.22;1.60;;;;;;;19.06;84.99;94604.50;5034040;28;20564;-63
2022/07/07 04:18:14;;;;;;;3.03;2.13;;;;;;;19.05;85.70;94588.22;5051810;28;20205;-64
2022/07/07 04:20:39;;;;;;;2.97;2.35;;;;;;;19.08;85.76;94581.94;5051901;28;20193;-63
2022/07/07 04:23:05;;;;;;;6.30;2.30;;;;;;;19.09;85.73;94584.31;5052339;28;20218;-59
2022/07/07 04:25:30;;;;;;;2.63;2.05;;;;;;;19.17;85.63;94589.34;5052023;28;20202;-63
2022/07/07 04:27:56;;;;;;;2.08;1.98;;;;;;;19.24;84.69;94602.31;5052181;28;20670;-62
2022/07/07 04:30:21;;;;;;;4.13;2.10;;;;;;;19.30;85.23;94591.25;5051913;28;20174;-63
2022/07/07 04:32:47;;;;;;;3.10;1.90;;;;;;;19.31;84.97;94592.06;5052056;28;20283;-63
2022/07/07 04:35:12;;;;;;;2.50;2.15;;;;;;;19.30;84.71;94601.56;5051863;28;20296;-63
2022/07/07 04:37:38;;;;;;;2.78;2.20;;;;;;;19.32;84.56;94604.75;5033677;28;20275;-63
2022/07/07 04:40:04;;;;;;;3.58;2.20;;;;;;;19.35;84.51;94612.19;5051734;28;20192;-63
2022/07/07 04:42:29;;;;;;;3.58;2.10;;;;;;;19.49;85.63;94580.38;5051834;28;20213;-63
2022/07/07 04:44:56;;;;;;;2.50;2.30;;;;;;;19.62;85.44;94583.03;5033718;28;20223;-63
2022/07/07 04:47:21;;;;;;;2.25;2.05;;;;;;;19.54;83.16;94628.78;5051606;28;20300;-63
2022/07/07 04:49:47;;;;;;;2.30;1.90;;;;;;;19.57;83.13;94618.94;5051629;28;20273;-63
2022/07/07 04:52:13;;;;;;;2.30;2.10;;;;;;;19.68;83.83;94610.66;5033596;28;20241;-63
2022/07/07 04:54:39;;;;;;;2.30;2.10;;;;;;;19.83;83.40;94620.91;5051434;28;20182;-63
2022/07/07 04:57:04;;;;;;;2.40;2.20;;;;;;;20.01;83.05;94631.56;5051751;28;20206;-60
2022/07/07 04:59:30;;;;;;;2.10;1.85;;;;;;;20.00;81.83;94643.66;5051374;28;20213;-60
2022/07/07 05:01:55;;;;;;;3.33;1.88;;;;;;;19.99;81.79;94641.28;5051667;28;20619;-62
2022/07/07 05:04:21;;;;;;;1.80;1.70;;;;;;;20.06;80.54;94673.09;5051219;28;20588;-63
2022/07/07 05:06:46;;;;;;;3.58;2.42;;;;;;;20.05;80.44;94651.66;5051299;28;20691;-63
2022/07/07 05:09:11;;;;;;;6.20;3.03;;;;;;;19.99;80.50;94656.78;5051645;28;20185;-63
2022/07/07 05:11:37;;;;;;;2.40;2.20;;;;;;;20.11;81.18;94639.78;5051220;28;20202;-64
2022/07/07 05:14:03;;;;;;;3.90;1.83;;;;;;;19.96;79.62;94652.78;5051425;28;20268;-63
2022/07/07 05:16:30;;;;;;;2.25;2.10;;;;;;;19.99;80.37;94644.66;5051391;28;20236;-62
2022/07/07 05:18:56;;;;;;;6.55;2.97;;;;;;;20.07;80.29;94638.56;5055301;28;20201;-62
2022/07/07 05:21:22;;;;;;;2.53;2.33;;;;;;;20.07;81.88;94620.50;5037281;28;20216;-64
2022/07/07 05:23:48;;;;;;;4.78;2.67;;;;;;;20.13;80.36;94637.00;5055115;28;20576;-64
2022/07/07 05:26:14;;;;;;;7.95;3.38;;;;;;;20.10;79.81;94651.09;5055259;28;20354;-63
2022/07/07 05:28:42;;;;;;;6.65;3.22;;;;;;;20.12;80.68;94632.84;5037781;28;20231;-63
2022/07/07 05:31:10;;;;;;;2.60;2.40;;;;;;;20.13;79.93;94649.91;5055041;28;20212;-64
2022/07/07 05:33:36;;;;;;;3.22;2.50;;;;;;;19.99;79.93;94644.66;5055556;28;20193;-63
2022/07/07 05:36:01;;;;;;;6.10;3.13;;;;;;;20.12;80.43;94631.03;5055071;28;20174;-63
2022/07/07 05:38:27;;;;;;;6.03;2.63;;;;;;;20.10;80.11;94641.56;5036982;28;20197;-63
2022/07/07 05:40:52;;;;;;;34.90;16.23;;;;;;;20.28;81.27;94628.19;5053412;28;20189;-61
2022/07/07 05:43:18;;;;;;;4.78;2.40;;;;;;;20.17;80.09;94640.81;5053408;28;20300;-60
2022/07/07 05:45:44;;;;;;;6.63;3.17;;;;;;;20.23;80.67;94637.50;5054281;28;20210;-60
2022/07/07 05:48:09;;;;;;;2.80;2.40;;;;;;;20.29;82.17;94609.16;5036185;28;20232;-60
2022/07/07 05:50:34;;;;;;;4.95;2.90;;;;;;;20.65;82.33;94617.47;5036164;28;20185;-60
2022/07/07 05:53:00;;;;;;;5.80;3.00;;;;;;;21.01;80.20;94661.16;5054452;28;20224;-61
2022/07/07 05:55:26;;;;;;;2.85;2.45;;;;;;;21.05;78.85;94675.34;5054420;28;20579;-60
2022/07/07 05:57:52;;;;;;;3.30;2.63;;;;;;;21.18;79.56;94643.56;5054890;28;20305;-60
2022/07/07 06:00:17;;;;;;;6.60;3.20;;;;;;;21.44;78.02;94683.22;5054487;28;20644;-60
2022/07/07 06:02:43;;;;;;;4.40;2.45;;;;;;;21.34;76.88;94697.53;5054802;28;20217;-61
2022/07/07 06:05:08;;;;;;;4.50;2.70;;;;;;;21.49;75.60;94730.00;5054409;28;20613;-62
2022/07/07 06:07:34;;;;;;;4.70;2.58;;;;;;;21.50;76.69;94700.56;5054436;28;20698;-61
2022/07/07 06:09:59;;;;;;;7.70;3.75;;;;;;;21.73;76.86;94687.28;5054389;28;20655;-61
2022/07/07 06:12:25;;;;;;;3.72;2.47;;;;;;;21.87;76.17;94709.63;5020129;28;20217;-60
2022/07/07 06:14:50;;;;;;;5.82;2.65;;;;;;;21.76;75.45;94723.09;5054385;28;20181;-61
2022/07/07 06:17:16;;;;;;;3.38;2.75;;;;;;;21.96;76.43;94710.25;5054163;28;20736;-61
2022/07/07 06:19:41;;;;;;;4.70;2.45;;;;;;;21.73;73.86;94749.41;5036295;28;20666;-62
2022/07/07 06:22:07;;;;;;;3.75;2.30;;;;;;;21.29;73.82;94755.00;5054281;28;20217;-62
2022/07/07 06:24:32;;;;;;;4.50;2.45;;;;;;;21.44;73.67;94754.88;5036091;28;20217;-62
2022/07/07 06:26:58;;;;;;;2.75;2.22;;;;;;;21.38;73.27;94756.44;5054082;28;20216;-62
2022/07/07 06:29:30;;;;;;;2.40;2.20;;;;;;;21.37;72.82;94769.56;5052767;28;20187;-63
2022/07/07 06:31:55;;;;;;;2.35;1.90;;;;;;;21.22;73.74;94748.22;5054092;28;20217;-60
2022/07/07 06:34:21;;;;;;;4.05;2.50;;;;;;;21.24;73.37;94752.22;5054036;28;20721;-61
2022/07/07 06:36:47;;;;;;;2.40;2.20;;;;;;;21.12;74.30;94720.13;5053758;28;20231;-61
2022/07/07 06:39:12;;;;;;;4.85;2.40;;;;;;;21.40;72.41;94782.13;5054000;28;20190;-61
2022/07/07 06:41:38;;;;;;;3.70;2.53;;;;;;;21.41;73.79;94732.75;5053766;28;20605;-63
2022/07/07 06:44:05;;;;;;;2.70;2.50;;;;;;;21.59;74.34;94725.25;5053473;28;20213;-61
2022/07/07 06:46:31;;;;;;;2.88;2.08;;;;;;;21.65;73.80;94750.34;5053396;28;20363;-61
2022/07/07 06:48:57;;;;;;;3.72;2.53;;;;;;;21.72;73.41;94748.59;5053649;28;20276;-60
2022/07/07 06:51:22;;;;;;;5.43;1.92;;;;;;;21.43;72.15;94766.22;5053564;28;20210;-60
2022/07/07 06:53:48;;;;;;;6.38;2.15;;;;;;;21.40;73.36;94731.19;5053357;28;20632;-61
2022/07/07 06:56:13;;;;;;;2.53;2.33;;;;;;;21.75;73.48;94722.31;5053522;28;20603;-59
2022/07/07 06:58:38;;;;;;;3.90;1.88;;;;;;;22.14;73.30;94746.72;5053766;28;20725;-60
2022/07/07 07:01:04;;;;;;;2.60;2.40;;;;;;;22.11;70.83;94781.56;5053394;28;20182;-60
2022/07/07 07:03:30;;;;;;;5.88;2.30;;;;;;;22.17;70.14;94805.88;5053784;28;20213;-61
2022/07/07 07:05:55;;;;;;;2.85;2.50;;;;;;;22.21;70.00;94807.88;5053027;28;20206;-61
2022/07/07 07:08:21;;;;;;;4.40;2.55;;;;;;;22.32;70.26;94790.97;5053870;28;20193;-62
2022/07/07 07:10:46;;;;;;;3.78;2.15;;;;;;;22.33;69.75;94797.72;5053263;28;20208;-63
2022/07/07 07:13:12;;;;;;;6.35;2.50;;;;;;;22.22;69.59;94798.31;5052868;28;20342;-61
2022/07/07 07:15:39;;;;;;;3.40;2.20;;;;;;;22.30;70.28;94780.78;5053044;28;20189;-60
2022/07/07 07:18:06;;;;;;;4.10;2.33;;;;;;;22.56;69.72;94803.34;5034908;28;20217;-61
2022/07/07 07:20:32;;;;;;;4.72;2.40;;;;;;;22.45;69.50;94796.16;5053004;28;20190;-62
2022/07/07 07:22:57;;;;;;;3.08;2.60;;;;;;;22.71;68.53;94819.50;5053174;28;20216;-60
2022/07/07 07:25:23;;;;;;;3.40;2.90;;;;;;;22.73;69.53;94783.00;5052750;28;20205;-63
2022/07/07 07:27:49;;;;;;;3.22;2.45;;;;;;;22.99;67.92;94820.09;5053284;28;20205;-59
2022/07/07 07:30:15;;;;;;;2.45;2.22;;;;;;;22.94;66.32;94869.19;5052656;28;20702;-60
2022/07/07 07:32:42;;;;;;;6.50;2.47;;;;;;;22.81;65.77;94856.19;5034875;28;20305;-61
2022/07/07 07:35:07;;;;;;;2.55;2.20;;;;;;;23.00;65.91;94844.22;5034678;28;20280;-61
2022/07/07 07:37:33;;;;;;;2.90;2.30;;;;;;;22.97;65.54;94849.81;5052554;28;20656;-63
2022/07/07 07:39:58;;;;;;;4.82;2.13;;;;;;;23.03;63.72;94895.69;5052173;28;20193;-63
2022/07/07 07:42:23;;;;;;;2.72;2.45;;;;;;;22.90;64.88;94849.03;5052582;28;20209;-62
2022/07/07 07:47:33;;;;;;;6.47;2.58;;;;;;;23.12;63.83;94865.97;5052544;28;20582;-62
2022/07/07 07:49:58;;;;;;;3.25;2.33;;;;;;;23.04;64.85;94833.25;5052369;28;20194;-62
2022/07/07 07:52:24;;;;;;;8.43;2.30;;;;;;;23.12;65.37;94814.88;5052535;28;20304;-62
2022/07/07 07:54:49;;;;;;;2.38;2.17;;;;;;;23.23;65.16;94822.03;5052465;28;20197;-60
2022/07/07 07:57:15;;;;;;;7.05;2.40;;;;;;;23.56;65.17;94823.78;5017982;28;20221;-61
2022/07/07 07:59:41;;;;;;;4.20;2.47;;;;;;;23.46;64.01;94846.75;5034300;28;20182;-60
2022/07/07 08:02:06;;;;;;;3.95;2.42;;;;;;;23.60;63.39;94871.69;5059437;22;20652;-59
2022/07/07 08:04:32;;;;;;;8.90;2.90;;;;;;;23.97;62.66;94889.97;5052057;28;20240;-60
2022/07/07 08:06:57;;;;;;;2.58;2.00;;;;;;;23.91;60.37;94913.34;5051974;28;20205;-59
2022/07/07 08:09:24;;;;;;;6.53;2.58;;;;;;;24.24;58.84;94960.81;5052151;28;20635;-59
2022/07/07 08:11:49;;;;;;;2.05;1.80;;;;;;;24.06;57.16;94976.28;5059154;22;20249;-62
2022/07/07 08:14:14;;;;;;;2.10;1.90;;;;;;;23.87;56.83;94961.50;5051935;28;20544;-62
2022/07/07 08:16:40;;;;;;;4.85;2.78;;;;;;;23.87;59.04;94912.97;5051612;28;20215;-64
2022/07/07 08:19:05;;;;;;;3.28;1.98;;;;;;;23.96;59.46;94885.75;5051778;28;20713;-62
2022/07/07 08:21:31;;;;;;;4.03;2.30;;;;;;;23.91;59.39;94889.97;5052228;28;20224;-66
2022/07/07 08:23:56;;;;;;;2.85;2.28;;;;;;;24.31;59.84;94875.84;5052080;28;20193;-62
2022/07/07 08:26:22;;;;;;;7.85;2.40;;;;;;;24.27;58.28;94921.44;5051921;28;20265;-63
2022/07/07 08:28:47;;;;;;;4.68;2.47;;;;;;;24.30;58.77;94910.59;5034137;28;20186;-62
2022/07/07 08:31:13;;;;;;;2.83;2.00;;;;;;;24.28;57.80;94925.59;5051918;28;20184;-63
2022/07/07 08:33:38;;;;;;;2.20;1.90;;;;;;;24.59;58.45;94896.25;5033821;28;20200;-60
2022/07/07 08:36:04;;;;;;;2.22;2.03;;;;;;;24.39;57.84;94917.19;5051516;28;20235;-60
2022/07/07 08:38:29;;;;;;;2.28;2.10;;;;;;;24.37;57.26;94926.19;5034108;28;20193;-62
2022/07/07 08:41:02;;;;;;;2.30;2.10;;;;;;;24.02;57.62;94920.50;5051728;28;20200;-62
2022/07/07 08:43:29;;;;;;;2.03;1.92;;;;;;;24.36;58.73;94875.22;5051541;28;20196;-61
2022/07/07 08:45:54;;;;;;;2.33;2.13;;;;;;;24.67;56.90;94935.00;5051662;28;20690;-63
2022/07/07 08:48:21;;;;;;;3.90;1.98;;;;;;;24.51;56.35;94949.31;5033716;28;20200;-59
2022/07/07 08:50:49;;;;;;;2.10;1.98;;;;;;;24.57;56.94;94914.66;5051650;28;20182;-59
2022/07/07 08:53:16;;;;;;;4.30;2.30;;;;;;;24.58;57.76;94889.47;5050921;28;20223;-62
2022/07/07 08:55:43;;;;;;;4.10;1.90;;;;;;;24.53;56.94;94902.28;5051446;28;20285;-60
2022/07/07 08:58:12;;;;;;;2.13;2.00;;;;;;;24.50;57.67;94895.72;5051349;28;20208;-63
2022/07/07 09:00:38;;;;;;;4.10;2.10;;;;;;;24.47;57.80;94883.13;5051668;28;20216;-63
2022/07/07 09:03:05;;;;;;;1.92;1.73;;;;;;;24.74;57.77;94876.81;5033474;28;20296;-60
2022/07/07 09:05:37;;;;;;;3.22;1.63;;;;;;;24.75;55.99;94932.19;5051272;28;20707;-60
2022/07/07 09:08:16;;;;;;;2.85;2.08;;;;;;;24.89;56.53;94905.09;5051317;28;20219;-63
2022/07/07 09:10:44;;;;;;;1.65;1.55;;;;;;;25.26;55.62;94940.63;5051792;28;20194;-63
2022/07/07 09:13:29;;;;;;;2.17;2.05;;;;;;;25.45;55.00;94957.16;5033369;28;20205;-64
2022/07/07 09:16:04;;;;;;;4.20;2.20;;;;;;;25.82;57.06;94883.22;5051421;28;20205;-61
2022/07/07 09:18:37;;;;;;;2.83;2.25;;;;;;;26.22;58.22;94847.88;5033490;28;20272;-62
2022/07/07 09:21:24;;;;;;;5.07;2.00;;;;;;;26.21;57.03;94895.03;5051257;28;20219;-62
2022/07/07 09:23:54;;;;;;;2.47;2.15;;;;;;;25.61;55.65;94930.56;5051238;28;20185;-61
2022/07/07 09:26:37;;;;;;;2.33;1.80;;;;;;;26.15;55.24;94935.81;5051492;28;20214;-62
2022/07/07 09:29:07;;;;;;;1.98;1.75;;;;;;;26.59;54.16;94969.34;5051212;28;20170;-63
2022/07/07 09:31:54;;;;;;;4.43;1.85;;;;;;;26.84;54.14;94956.22;5051370;28;20206;-62
2022/07/07 09:34:31;;;;;;;3.72;1.85;;;;;;;26.87;53.34;94992.28;5051448;28;20765;-63
2022/07/07 09:39:51;;;;;;;2.38;2.20;;;;;;;25.71;54.61;94928.25;5051235;28;20189;-62
2022/07/07 09:42:33;;;;;;;2.95;1.88;;;;;;;25.63;53.73;94941.56;5050895;28;20231;-63
2022/07/07 09:45:01;;;;;;;4.97;2.30;;;;;;;25.44;55.38;94885.22;5051195;28;20225;-62
2022/07/07 09:47:34;;;;;;;1.95;1.67;;;;;;;25.38;55.54;94902.47;5051150;28;20206;-63
2022/07/07 09:50:06;;;;;;;2.58;2.38;;;;;;;25.99;56.47;94866.00;5058672;23;20227;-62
2022/07/07 09:52:34;;;;;;;3.90;2.10;;;;;;;26.26;54.68;94905.59;5070762;28;20249;-63
2022/07/07 09:55:01;;;;;;;2.40;2.03;;;;;;;26.26;53.27;94957.75;5071192;28;20195;-63
2022/07/07 09:57:27;;;;;;;2.05;1.95;;;;;;;26.41;53.19;94955.53;5071318;28;20228;-64
2022/07/07 09:59:53;;;;;;;2.20;1.98;;;;;;;26.33;53.51;94951.44;5071195;28;20189;-63
2022/07/07 10:02:24;;;;;;;1.98;1.85;;;;;;;26.07;53.68;94933.50;5070843;28;20208;-64
2022/07/07 10:04:55;;;;;;;2.40;2.20;;;;;;;26.10;54.96;94886.13;5074405;28;20212;-62
2022/07/07 10:07:22;;;;;;;3.67;2.50;;;;;;;26.44;55.82;94864.63;5074576;28;20230;-62
2022/07/07 10:09:54;;;;;;;2.45;2.25;;;;;;;26.84;54.83;94906.63;5074474;28;20195;-62
2022/07/07 10:12:22;;;;;;;2.60;2.40;;;;;;;27.08;52.31;94962.28;5074496;28;20209;-63
2022/07/07 10:14:50;;;;;;;2.40;2.20;;;;;;;27.43;53.93;94916.16;5074353;28;20230;-63
2022/07/07 10:17:17;;;;;;;2.78;2.03;;;;;;;26.93;52.12;94970.53;5074131;28;20299;-63
2022/07/07 10:19:44;;;;;;;4.70;2.30;;;;;;;26.57;52.99;94934.06;5074641;28;20213;-64
2022/07/07 10:22:11;;;;;;;2.65;1.98;;;;;;;26.40;52.19;94941.69;5056248;28;20234;-63
2022/07/07 10:24:38;;;;;;;1.90;1.60;;;;;;;26.84;52.89;94914.47;5074323;28;20686;-63
2022/07/07 10:27:05;;;;;;;2.50;2.30;;;;;;;26.70;53.29;94902.59;5074079;28;20559;-60
2022/07/07 10:29:49;;;;;;;2.28;2.08;;;;;;;27.57;55.42;94846.97;5074091;28;20188;-61
2022/07/07 10:32:28;;;;;;;1.95;1.85;;;;;;;27.48;52.94;94926.72;5073800;28;20722;-62
2022/07/07 10:34:56;;;;;;;4.45;2.05;;;;;;;26.94;51.81;94932.97;5073894;28;20201;-60
2022/07/07 10:37:23;;;;;;;2.20;1.80;;;;;;;26.69;53.96;94869.69;5055776;28;20720;-60
2022/07/07 10:39:50;;;;;;;1.90;1.75;;;;;;;26.46;54.84;94854.75;5073741;28;20189;-59
2022/07/07 10:42:16;;;;;;;3.90;2.08;;;;;;;26.75;53.28;94901.94;5073713;28;20207;-59
2022/07/07 10:44:44;;;;;;;2.40;2.20;;;;;;;26.98;52.31;94928.09;5074021;28;20578;-63
2022/07/07 10:47:12;;;;;;;2.20;1.98;;;;;;;27.21;52.03;94925.53;5073638;28;20223;-62
2022/07/07 10:49:46;;;;;;;3.00;1.90;;;;;;;27.17;51.09;94950.50;5073972;28;20193;-61
2022/07/07 10:52:17;;;;;;;4.32;2.25;;;;;;;27.30;50.33;94955.50;5073748;28;20679;-63
2022/07/07 10:54:47;;;;;;;3.17;2.15;;;;;;;26.99;51.54;94906.19;5073506;28;20242;-63
2022/07/07 10:57:17;;;;;;;3.67;1.95;;;;;;;26.90;52.80;94878.84;5073449;28;20591;-62
2022/07/07 11:00:19;;;;;;;2.90;2.45;;;;;;;26.54;54.51;94830.97;5073311;28;20216;-64
2022/07/07 11:02:48;;;;;;;2.95;1.95;;;;;;;25.97;54.83;94817.72;5072693;28;20293;-62
2022/07/07 11:05:14;;;;;;;2.20;1.98;;;;;;;25.83;55.02;94808.47;5073182;28;20587;-62
2022/07/07 11:07:58;;;;;;;2.30;2.10;;;;;;;26.50;54.48;94829.81;5073264;28;20242;-63
2022/07/07 11:10:44;;;;;;;5.38;2.60;;;;;;;27.42;51.78;94909.34;5057795;28;20570;-62
2022/07/07 11:13:31;;;;;;;4.00;2.70;;;;;;;27.88;50.06;94945.09;5073176;28;20711;-60
2022/07/07 11:16:06;;;;;;;2.70;2.50;;;;;;;27.87;49.53;94946.94;5072111;28;20196;-62
2022/07/07 11:18:34;;;;;;;2.70;2.50;;;;;;;27.37;50.11;94924.91;5073200;28;20200;-60
2022/07/07 11:21:03;;;;;;;2.40;2.20;;;;;;;27.35;52.71;94832.94;5073006;28;20176;-61
2022/07/07 11:23:52;;;;;;;4.70;1.98;;;;;;;26.43;54.15;94803.06;5072940;28;20193;-61
2022/07/07 11:26:25;;;;;;;5.70;2.30;;;;;;;26.24;55.45;94757.19;5072683;28;20205;-61
2022/07/07 11:28:52;;;;;;;2.80;2.60;;;;;;;26.29;58.22;94681.72;5073082;28;20232;-63
2022/07/07 11:31:18;;;;;;;4.22;2.25;;;;;;;26.40;55.54;94751.34;5072621;28;20689;-63
2022/07/07 11:33:52;;;;;;;3.78;1.55;;;;;;;26.30;55.26;94753.69;5072945;28;20193;-63
2022/07/07 11:36:20;;;;;;;2.60;1.70;;;;;;;26.78;55.65;94760.59;5072811;28;20229;-62
2022/07/07 11:38:48;;;;;;;2.17;2.08;;;;;;;27.72;52.75;94844.66;5072819;28;20685;-63
2022/07/07 11:41:14;;;;;;;2.15;1.90;;;;;;;27.60;53.09;94827.41;5054574;28;20215;-63